sensor_id;sensor_type;location;lat;lon;timestamp;P1;durP1;ratioP1;P2;durP2;ratioP2
19016;SDS011;9641;51.494;6.670;2023-02-13T00:00:45;17.57;;;10.43;;
19016;SDS011;9641;51.494;6.670;2023-02-13T00:03:12;20.67;;;11.13;;
19016;SDS011;9641;51.494;6.670;2023-02-13T00:05:40;17.77;;;10.40;;
19016;SDS011;9641;51.494;6.670;2023-02-13T00:08:13;15.63;;;10.00;;
19016;SDS011;9641;51.494;6.670;2023-02-13T00:10:40;15.63;;;9.10;;
19016;SDS011;9641;51.494;6.670;2023-02-13T00:13:07;14.53;;;8.63;;
19016;SDS011;9641;51.494;6.670;2023-02-13T00:15:34;14.67;;;7.80;;
19016;SDS011;9641;51.494;6.670;2023-02-13T00:18:01;15.40;;;8.00;;
19016;SDS011;9641;51.494;6.670;2023-02-13T00:20:28;16.97;;;7.67;;
19016;SDS011;9641;51.494;6.670;2023-02-13T00:22:56;14.03;;;8.17;;
19016;SDS011;9641;51.494;6.670;2023-02-13T00:25:27;14.67;;;8.30;;
19016;SDS011;9641;51.494;6.670;2023-02-13T00:27:54;15.00;;;8.27;;
19016;SDS011;9641;51.494;6.670;2023-02-13T00:30:23;16.17;;;8.40;;
19016;SDS011;9641;51.494;6.670;2023-02-13T00:32:51;13.40;;;8.13;;
19016;SDS011;9641;51.494;6.670;2023-02-13T00:35:19;14.50;;;8.57;;
19016;SDS011;9641;51.494;6.670;2023-02-13T00:37:46;15.37;;;8.47;;
19016;SDS011;9641;51.494;6.670;2023-02-13T00:40:13;13.67;;;8.17;;
19016;SDS011;9641;51.494;6.670;2023-02-13T00:42:42;14.20;;;7.77;;
19016;SDS011;9641;51.494;6.670;2023-02-13T00:45:09;16.07;;;8.77;;
19016;SDS011;9641;51.494;6.670;2023-02-13T00:47:36;12.97;;;8.03;;
19016;SDS011;9641;51.494;6.670;2023-02-13T00:50:03;11.63;;;7.13;;
19016;SDS011;9641;51.494;6.670;2023-02-13T00:52:31;13.70;;;8.07;;
19016;SDS011;9641;51.494;6.670;2023-02-13T00:54:59;16.20;;;8.47;;
19016;SDS011;9641;51.494;6.670;2023-02-13T00:57:26;15.80;;;8.10;;
19016;SDS011;9641;51.494;6.670;2023-02-13T00:59:56;12.27;;;7.47;;
19016;SDS011;9641;51.494;6.670;2023-02-13T01:02:33;16.33;;;8.37;;
19016;SDS011;9641;51.494;6.670;2023-02-13T01:05:01;13.70;;;7.40;;
19016;SDS011;9641;51.494;6.670;2023-02-13T01:07:28;13.80;;;7.47;;
19016;SDS011;9641;51.494;6.670;2023-02-13T01:09:55;14.60;;;7.80;;
19016;SDS011;9641;51.494;6.670;2023-02-13T01:12:22;12.57;;;7.60;;
19016;SDS011;9641;51.494;6.670;2023-02-13T01:14:50;15.47;;;6.80;;
19016;SDS011;9641;51.494;6.670;2023-02-13T01:17:19;12.90;;;8.07;;
19016;SDS011;9641;51.494;6.670;2023-02-13T01:19:46;12.90;;;7.47;;
19016;SDS011;9641;51.494;6.670;2023-02-13T01:22:14;14.53;;;7.67;;
19016;SDS011;9641;51.494;6.670;2023-02-13T01:24:42;11.80;;;7.57;;
19016;SDS011;9641;51.494;6.670;2023-02-13T01:27:09;11.97;;;7.07;;
19016;SDS011;9641;51.494;6.670;2023-02-13T01:29:36;16.10;;;7.17;;
19016;SDS011;9641;51.494;6.670;2023-02-13T01:32:03;14.27;;;7.13;;
19016;SDS011;9641;51.494;6.670;2023-02-13T01:34:38;15.87;;;7.63;;
19016;SDS011;9641;51.494;6.670;2023-02-13T01:37:09;12.00;;;7.47;;
19016;SDS011;9641;51.494;6.670;2023-02-13T01:39:36;11.20;;;7.13;;
19016;SDS011;9641;51.494;6.670;2023-02-13T01:42:04;14.67;;;7.47;;
19016;SDS011;9641;51.494;6.670;2023-02-13T01:44:48;13.97;;;7.43;;
19016;SDS011;9641;51.494;6.670;2023-02-13T01:47:21;14.80;;;7.97;;
19016;SDS011;9641;51.494;6.670;2023-02-13T01:49:59;15.50;;;7.43;;
19016;SDS011;9641;51.494;6.670;2023-02-13T01:52:31;13.73;;;7.03;;
19016;SDS011;9641;51.494;6.670;2023-02-13T01:55:03;13.60;;;6.97;;
19016;SDS011;9641;51.494;6.670;2023-02-13T01:57:32;13.57;;;7.60;;
19016;SDS011;9641;51.494;6.670;2023-02-13T02:00:05;15.60;;;8.07;;
19016;SDS011;9641;51.494;6.670;2023-02-13T02:02:43;13.03;;;7.60;;
19016;SDS011;9641;51.494;6.670;2023-02-13T02:05:18;15.63;;;7.63;;
19016;SDS011;9641;51.494;6.670;2023-02-13T02:07:47;15.00;;;7.67;;
19016;SDS011;9641;51.494;6.670;2023-02-13T02:10:20;17.30;;;8.57;;
19016;SDS011;9641;51.494;6.670;2023-02-13T02:12:49;17.77;;;9.20;;
19016;SDS011;9641;51.494;6.670;2023-02-13T02:15:27;15.63;;;8.10;;
19016;SDS011;9641;51.494;6.670;2023-02-13T02:17:54;18.43;;;7.87;;
19016;SDS011;9641;51.494;6.670;2023-02-13T02:20:25;14.70;;;7.87;;
19016;SDS011;9641;51.494;6.670;2023-02-13T02:23:28;14.80;;;7.60;;
19016;SDS011;9641;51.494;6.670;2023-02-13T02:29:19;15.90;;;8.30;;
19016;SDS011;9641;51.494;6.670;2023-02-13T02:32:04;24.23;;;8.97;;
19016;SDS011;9641;51.494;6.670;2023-02-13T02:34:55;21.97;;;9.40;;
19016;SDS011;9641;51.494;6.670;2023-02-13T02:37:42;16.17;;;8.17;;
19016;SDS011;9641;51.494;6.670;2023-02-13T02:40:19;17.13;;;8.53;;
19016;SDS011;9641;51.494;6.670;2023-02-13T02:42:59;20.13;;;8.83;;
19016;SDS011;9641;51.494;6.670;2023-02-13T02:45:38;18.67;;;8.47;;
19016;SDS011;9641;51.494;6.670;2023-02-13T02:48:14;17.40;;;8.20;;
19016;SDS011;9641;51.494;6.670;2023-02-13T02:51:07;18.60;;;8.70;;
19016;SDS011;9641;51.494;6.670;2023-02-13T02:53:50;16.97;;;8.77;;
19016;SDS011;9641;51.494;6.670;2023-02-13T02:56:25;18.03;;;9.37;;
19016;SDS011;9641;51.494;6.670;2023-02-13T02:58:58;19.40;;;9.43;;
19016;SDS011;9641;51.494;6.670;2023-02-13T03:01:46;17.00;;;9.10;;
19016;SDS011;9641;51.494;6.670;2023-02-13T03:04:35;16.97;;;9.33;;
19016;SDS011;9641;51.494;6.670;2023-02-13T03:07:22;18.07;;;9.27;;
19016;SDS011;9641;51.494;6.670;2023-02-13T03:09:51;21.27;;;9.53;;
19016;SDS011;9641;51.494;6.670;2023-02-13T03:12:40;19.13;;;8.60;;
19016;SDS011;9641;51.494;6.670;2023-02-13T03:15:30;17.23;;;9.23;;
19016;SDS011;9641;51.494;6.670;2023-02-13T03:17:59;17.10;;;8.60;;
19016;SDS011;9641;51.494;6.670;2023-02-13T03:20:45;17.73;;;8.87;;
19016;SDS011;9641;51.494;6.670;2023-02-13T03:23:42;17.47;;;8.63;;
19016;SDS011;9641;51.494;6.670;2023-02-13T03:32:35;14.93;;;8.43;;
19016;SDS011;9641;51.494;6.670;2023-02-13T03:35:14;14.83;;;8.00;;
19016;SDS011;9641;51.494;6.670;2023-02-13T03:38:10;16.17;;;8.60;;
19016;SDS011;9641;51.494;6.670;2023-02-13T03:40:43;15.83;;;8.73;;
19016;SDS011;9641;51.494;6.670;2023-02-13T03:43:34;16.30;;;8.47;;
19016;SDS011;9641;51.494;6.670;2023-02-13T03:46:06;14.93;;;7.30;;
19016;SDS011;9641;51.494;6.670;2023-02-13T03:48:36;12.77;;;7.53;;
19016;SDS011;9641;51.494;6.670;2023-02-13T03:51:24;13.37;;;7.37;;
19016;SDS011;9641;51.494;6.670;2023-02-13T03:53:55;12.97;;;7.13;;
19016;SDS011;9641;51.494;6.670;2023-02-13T03:56:26;14.80;;;7.30;;
19016;SDS011;9641;51.494;6.670;2023-02-13T03:59:16;11.53;;;6.90;;
19016;SDS011;9641;51.494;6.670;2023-02-13T04:01:50;13.27;;;6.63;;
19016;SDS011;9641;51.494;6.670;2023-02-13T04:04:25;11.87;;;6.63;;
19016;SDS011;9641;51.494;6.670;2023-02-13T04:07:00;14.87;;;8.07;;
19016;SDS011;9641;51.494;6.670;2023-02-13T04:09:32;12.40;;;6.70;;
19016;SDS011;9641;51.494;6.670;2023-02-13T04:12:05;11.97;;;6.83;;
19016;SDS011;9641;51.494;6.670;2023-02-13T04:14:39;13.43;;;6.97;;
19016;SDS011;9641;51.494;6.670;2023-02-13T04:17:13;14.70;;;6.97;;
19016;SDS011;9641;51.494;6.670;2023-02-13T04:19:45;14.30;;;7.77;;
19016;SDS011;9641;51.494;6.670;2023-02-13T04:22:13;14.43;;;7.53;;
19016;SDS011;9641;51.494;6.670;2023-02-13T04:24:41;12.20;;;7.30;;
19016;SDS011;9641;51.494;6.670;2023-02-13T04:27:09;12.00;;;6.87;;
19016;SDS011;9641;51.494;6.670;2023-02-13T04:29:39;11.53;;;6.57;;
19016;SDS011;9641;51.494;6.670;2023-02-13T04:32:12;12.70;;;6.67;;
19016;SDS011;9641;51.494;6.670;2023-02-13T04:34:41;14.13;;;6.67;;
19016;SDS011;9641;51.494;6.670;2023-02-13T04:37:08;12.07;;;6.83;;
19016;SDS011;9641;51.494;6.670;2023-02-13T04:39:37;12.40;;;6.57;;
19016;SDS011;9641;51.494;6.670;2023-02-13T04:42:05;10.97;;;6.33;;
19016;SDS011;9641;51.494;6.670;2023-02-13T04:44:32;12.43;;;6.93;;
19016;SDS011;9641;51.494;6.670;2023-02-13T04:46:59;11.13;;;6.50;;
19016;SDS011;9641;51.494;6.670;2023-02-13T04:49:26;15.50;;;6.77;;
19016;SDS011;9641;51.494;6.670;2023-02-13T04:51:53;10.10;;;6.50;;
19016;SDS011;9641;51.494;6.670;2023-02-13T04:54:20;12.40;;;7.30;;
19016;SDS011;9641;51.494;6.670;2023-02-13T04:56:50;12.83;;;7.13;;
19016;SDS011;9641;51.494;6.670;2023-02-13T04:59:19;13.40;;;6.93;;
19016;SDS011;9641;51.494;6.670;2023-02-13T05:01:46;15.50;;;7.73;;
19016;SDS011;9641;51.494;6.670;2023-02-13T05:04:14;13.63;;;7.17;;
19016;SDS011;9641;51.494;6.670;2023-02-13T05:06:41;14.00;;;7.20;;
19016;SDS011;9641;51.494;6.670;2023-02-13T05:09:09;15.77;;;7.13;;
19016;SDS011;9641;51.494;6.670;2023-02-13T05:11:36;14.40;;;7.80;;
19016;SDS011;9641;51.494;6.670;2023-02-13T05:14:03;12.37;;;6.57;;
19016;SDS011;9641;51.494;6.670;2023-02-13T05:16:32;17.33;;;7.50;;
19016;SDS011;9641;51.494;6.670;2023-02-13T05:18:59;11.57;;;6.70;;
19016;SDS011;9641;51.494;6.670;2023-02-13T05:21:26;13.07;;;6.80;;
19016;SDS011;9641;51.494;6.670;2023-02-13T05:24:10;13.10;;;7.50;;
19016;SDS011;9641;51.494;6.670;2023-02-13T05:26:38;13.40;;;7.27;;
19016;SDS011;9641;51.494;6.670;2023-02-13T05:29:05;15.33;;;8.47;;
19016;SDS011;9641;51.494;6.670;2023-02-13T05:31:45;16.70;;;8.17;;
19016;SDS011;9641;51.494;6.670;2023-02-13T05:34:12;16.07;;;8.97;;
19016;SDS011;9641;51.494;6.670;2023-02-13T05:36:39;18.43;;;8.67;;
19016;SDS011;9641;51.494;6.670;2023-02-13T05:39:06;15.40;;;8.10;;
19016;SDS011;9641;51.494;6.670;2023-02-13T05:41:35;18.90;;;8.63;;
19016;SDS011;9641;51.494;6.670;2023-02-13T05:44:02;14.33;;;8.63;;
19016;SDS011;9641;51.494;6.670;2023-02-13T05:46:29;16.10;;;8.80;;
19016;SDS011;9641;51.494;6.670;2023-02-13T05:48:58;16.93;;;8.90;;
19016;SDS011;9641;51.494;6.670;2023-02-13T05:51:25;15.87;;;8.90;;
19016;SDS011;9641;51.494;6.670;2023-02-13T05:53:52;16.17;;;8.73;;
19016;SDS011;9641;51.494;6.670;2023-02-13T05:56:19;16.27;;;8.43;;
19016;SDS011;9641;51.494;6.670;2023-02-13T05:58:45;18.73;;;9.50;;
19016;SDS011;9641;51.494;6.670;2023-02-13T06:01:12;18.17;;;9.57;;
19016;SDS011;9641;51.494;6.670;2023-02-13T06:03:39;20.60;;;8.63;;
19016;SDS011;9641;51.494;6.670;2023-02-13T06:06:09;19.27;;;9.77;;
19016;SDS011;9641;51.494;6.670;2023-02-13T06:08:36;20.73;;;9.97;;
19016;SDS011;9641;51.494;6.670;2023-02-13T06:11:03;18.13;;;9.27;;
19016;SDS011;9641;51.494;6.670;2023-02-13T06:13:31;19.87;;;9.10;;
19016;SDS011;9641;51.494;6.670;2023-02-13T06:15:58;20.27;;;9.90;;
19016;SDS011;9641;51.494;6.670;2023-02-13T06:18:25;21.10;;;9.80;;
19016;SDS011;9641;51.494;6.670;2023-02-13T06:20:52;19.53;;;9.43;;
19016;SDS011;9641;51.494;6.670;2023-02-13T06:23:20;20.37;;;9.77;;
19016;SDS011;9641;51.494;6.670;2023-02-13T06:25:47;23.13;;;10.13;;
19016;SDS011;9641;51.494;6.670;2023-02-13T06:28:14;17.10;;;9.67;;
19016;SDS011;9641;51.494;6.670;2023-02-13T06:30:41;21.87;;;9.93;;
19016;SDS011;9641;51.494;6.670;2023-02-13T06:33:08;18.93;;;9.13;;
19016;SDS011;9641;51.494;6.670;2023-02-13T06:35:35;22.30;;;9.93;;
19016;SDS011;9641;51.494;6.670;2023-02-13T06:38:02;18.13;;;9.37;;
19016;SDS011;9641;51.494;6.670;2023-02-13T06:40:31;19.67;;;9.93;;
19016;SDS011;9641;51.494;6.670;2023-02-13T06:42:57;19.97;;;9.70;;
19016;SDS011;9641;51.494;6.670;2023-02-13T06:45:24;17.13;;;9.37;;
19016;SDS011;9641;51.494;6.670;2023-02-13T06:47:52;18.57;;;10.03;;
19016;SDS011;9641;51.494;6.670;2023-02-13T06:50:19;19.70;;;9.40;;
19016;SDS011;9641;51.494;6.670;2023-02-13T06:52:46;21.87;;;9.30;;
19016;SDS011;9641;51.494;6.670;2023-02-13T06:55:13;20.27;;;9.20;;
19016;SDS011;9641;51.494;6.670;2023-02-13T06:57:43;18.07;;;9.63;;
19016;SDS011;9641;51.494;6.670;2023-02-13T07:00:11;19.50;;;9.60;;
19016;SDS011;9641;51.494;6.670;2023-02-13T07:02:40;19.70;;;9.47;;
19016;SDS011;9641;51.494;6.670;2023-02-13T07:05:08;19.47;;;9.90;;
19016;SDS011;9641;51.494;6.670;2023-02-13T07:07:36;20.20;;;10.57;;
19016;SDS011;9641;51.494;6.670;2023-02-13T07:10:05;19.43;;;10.10;;
19016;SDS011;9641;51.494;6.670;2023-02-13T07:12:33;20.33;;;9.87;;
19016;SDS011;9641;51.494;6.670;2023-02-13T07:15:03;22.63;;;10.53;;
19016;SDS011;9641;51.494;6.670;2023-02-13T07:17:30;19.13;;;9.83;;
19016;SDS011;9641;51.494;6.670;2023-02-13T07:19:58;18.00;;;10.67;;
19016;SDS011;9641;51.494;6.670;2023-02-13T07:22:25;19.63;;;10.17;;
19016;SDS011;9641;51.494;6.670;2023-02-13T07:24:52;20.53;;;10.87;;
19016;SDS011;9641;51.494;6.670;2023-02-13T07:27:19;19.97;;;10.93;;
19016;SDS011;9641;51.494;6.670;2023-02-13T07:29:46;22.93;;;10.50;;
19016;SDS011;9641;51.494;6.670;2023-02-13T07:32:15;23.63;;;10.20;;
19016;SDS011;9641;51.494;6.670;2023-02-13T07:34:42;19.33;;;9.87;;
19016;SDS011;9641;51.494;6.670;2023-02-13T07:37:09;20.73;;;10.60;;
19016;SDS011;9641;51.494;6.670;2023-02-13T07:39:36;22.43;;;10.97;;
19016;SDS011;9641;51.494;6.670;2023-02-13T07:42:03;20.73;;;11.37;;
19016;SDS011;9641;51.494;6.670;2023-02-13T07:44:31;22.13;;;11.63;;
19016;SDS011;9641;51.494;6.670;2023-02-13T07:46:58;25.13;;;12.37;;
19016;SDS011;9641;51.494;6.670;2023-02-13T07:49:26;25.50;;;12.13;;
19016;SDS011;9641;51.494;6.670;2023-02-13T07:51:54;24.67;;;12.47;;
19016;SDS011;9641;51.494;6.670;2023-02-13T07:54:22;24.63;;;12.00;;
19016;SDS011;9641;51.494;6.670;2023-02-13T07:56:49;24.40;;;13.20;;
19016;SDS011;9641;51.494;6.670;2023-02-13T07:59:16;24.27;;;12.37;;
19016;SDS011;9641;51.494;6.670;2023-02-13T08:01:44;23.67;;;12.13;;
19016;SDS011;9641;51.494;6.670;2023-02-13T08:04:10;25.47;;;12.97;;
19016;SDS011;9641;51.494;6.670;2023-02-13T08:06:39;27.10;;;12.83;;
19016;SDS011;9641;51.494;6.670;2023-02-13T08:09:07;22.33;;;12.07;;
19016;SDS011;9641;51.494;6.670;2023-02-13T08:12:01;23.30;;;13.03;;
19016;SDS011;9641;51.494;6.670;2023-02-13T08:14:29;27.23;;;12.93;;
19016;SDS011;9641;51.494;6.670;2023-02-13T08:16:57;23.97;;;12.80;;
19016;SDS011;9641;51.494;6.670;2023-02-13T08:19:24;23.80;;;13.10;;
19016;SDS011;9641;51.494;6.670;2023-02-13T08:21:53;21.37;;;11.70;;
19016;SDS011;9641;51.494;6.670;2023-02-13T08:24:20;21.47;;;11.87;;
19016;SDS011;9641;51.494;6.670;2023-02-13T08:26:47;23.93;;;12.40;;
19016;SDS011;9641;51.494;6.670;2023-02-13T08:29:14;20.53;;;11.80;;
19016;SDS011;9641;51.494;6.670;2023-02-13T08:31:41;24.60;;;11.30;;
19016;SDS011;9641;51.494;6.670;2023-02-13T08:34:08;23.53;;;12.50;;
19016;SDS011;9641;51.494;6.670;2023-02-13T08:36:35;19.70;;;11.70;;
19016;SDS011;9641;51.494;6.670;2023-02-13T08:39:04;24.37;;;12.13;;
19016;SDS011;9641;51.494;6.670;2023-02-13T08:41:30;20.70;;;11.73;;
19016;SDS011;9641;51.494;6.670;2023-02-13T08:43:57;22.53;;;12.07;;
19016;SDS011;9641;51.494;6.670;2023-02-13T08:46:24;20.23;;;11.07;;
19016;SDS011;9641;51.494;6.670;2023-02-13T08:48:51;23.40;;;12.10;;
19016;SDS011;9641;51.494;6.670;2023-02-13T08:51:19;22.83;;;11.73;;
19016;SDS011;9641;51.494;6.670;2023-02-13T08:53:46;21.47;;;11.30;;
19016;SDS011;9641;51.494;6.670;2023-02-13T08:56:14;20.53;;;11.67;;
19016;SDS011;9641;51.494;6.670;2023-02-13T08:58:41;24.47;;;11.00;;
19016;SDS011;9641;51.494;6.670;2023-02-13T09:01:08;21.47;;;12.20;;
19016;SDS011;9641;51.494;6.670;2023-02-13T09:03:35;19.10;;;10.70;;
19016;SDS011;9641;51.494;6.670;2023-02-13T09:06:02;19.47;;;10.90;;
19016;SDS011;9641;51.494;6.670;2023-02-13T09:08:30;20.67;;;10.40;;
19016;SDS011;9641;51.494;6.670;2023-02-13T09:10:58;20.40;;;11.50;;
19016;SDS011;9641;51.494;6.670;2023-02-13T09:13:28;17.30;;;9.93;;
19016;SDS011;9641;51.494;6.670;2023-02-13T09:15:57;22.87;;;10.30;;
19016;SDS011;9641;51.494;6.670;2023-02-13T09:18:25;17.23;;;9.73;;
19016;SDS011;9641;51.494;6.670;2023-02-13T09:20:57;20.87;;;10.23;;
19016;SDS011;9641;51.494;6.670;2023-02-13T09:23:25;20.27;;;10.37;;
19016;SDS011;9641;51.494;6.670;2023-02-13T09:25:53;22.57;;;11.13;;
19016;SDS011;9641;51.494;6.670;2023-02-13T09:28:20;21.07;;;11.03;;
19016;SDS011;9641;51.494;6.670;2023-02-13T09:30:48;21.37;;;10.50;;
19016;SDS011;9641;51.494;6.670;2023-02-13T09:33:15;17.87;;;10.00;;
19016;SDS011;9641;51.494;6.670;2023-02-13T09:35:42;18.23;;;9.87;;
19016;SDS011;9641;51.494;6.670;2023-02-13T09:38:09;23.27;;;9.73;;
19016;SDS011;9641;51.494;6.670;2023-02-13T09:40:38;18.67;;;10.67;;
19016;SDS011;9641;51.494;6.670;2023-02-13T09:43:12;21.40;;;10.93;;
19016;SDS011;9641;51.494;6.670;2023-02-13T09:45:43;19.63;;;10.20;;
19016;SDS011;9641;51.494;6.670;2023-02-13T09:48:16;26.27;;;10.53;;
19016;SDS011;9641;51.494;6.670;2023-02-13T09:50:54;21.53;;;10.13;;
19016;SDS011;9641;51.494;6.670;2023-02-13T09:53:23;20.20;;;9.73;;
19016;SDS011;9641;51.494;6.670;2023-02-13T09:55:58;25.43;;;11.03;;
19016;SDS011;9641;51.494;6.670;2023-02-13T09:58:35;21.60;;;10.07;;
19016;SDS011;9641;51.494;6.670;2023-02-13T10:01:13;21.77;;;9.83;;
19016;SDS011;9641;51.494;6.670;2023-02-13T10:03:57;18.77;;;9.03;;
19016;SDS011;9641;51.494;6.670;2023-02-13T10:06:39;18.90;;;9.83;;
19016;SDS011;9641;51.494;6.670;2023-02-13T10:09:16;17.67;;;9.30;;
19016;SDS011;9641;51.494;6.670;2023-02-13T10:11:57;22.23;;;10.07;;
19016;SDS011;9641;51.494;6.670;2023-02-13T10:14:35;20.60;;;9.80;;
19016;SDS011;9641;51.494;6.670;2023-02-13T10:17:10;18.73;;;9.73;;
19016;SDS011;9641;51.494;6.670;2023-02-13T10:19:44;21.83;;;10.60;;
19016;SDS011;9641;51.494;6.670;2023-02-13T10:22:17;24.93;;;10.93;;
19016;SDS011;9641;51.494;6.670;2023-02-13T10:24:46;25.53;;;10.90;;
19016;SDS011;9641;51.494;6.670;2023-02-13T10:27:20;26.20;;;10.20;;
19016;SDS011;9641;51.494;6.670;2023-02-13T10:29:51;27.30;;;10.60;;
19016;SDS011;9641;51.494;6.670;2023-02-13T10:32:33;24.07;;;11.40;;
19016;SDS011;9641;51.494;6.670;2023-02-13T10:35:14;25.57;;;12.67;;
19016;SDS011;9641;51.494;6.670;2023-02-13T10:37:48;24.80;;;10.77;;
19016;SDS011;9641;51.494;6.670;2023-02-13T10:40:18;22.10;;;10.87;;
19016;SDS011;9641;51.494;6.670;2023-02-13T10:42:54;23.97;;;10.90;;
19016;SDS011;9641;51.494;6.670;2023-02-13T10:45:33;24.63;;;10.97;;
19016;SDS011;9641;51.494;6.670;2023-02-13T10:48:24;24.93;;;11.47;;
19016;SDS011;9641;51.494;6.670;2023-02-13T10:51:17;23.97;;;10.73;;
19016;SDS011;9641;51.494;6.670;2023-02-13T10:53:53;18.27;;;9.50;;
19016;SDS011;9641;51.494;6.670;2023-02-13T10:56:33;23.27;;;9.43;;
19016;SDS011;9641;51.494;6.670;2023-02-13T10:59:07;15.83;;;9.43;;
19016;SDS011;9641;51.494;6.670;2023-02-13T11:01:51;15.37;;;8.57;;
19016;SDS011;9641;51.494;6.670;2023-02-13T11:04:21;15.07;;;8.50;;
19016;SDS011;9641;51.494;6.670;2023-02-13T11:06:55;16.93;;;8.70;;
19016;SDS011;9641;51.494;6.670;2023-02-13T11:09:25;14.70;;;7.83;;
19016;SDS011;9641;51.494;6.670;2023-02-13T11:11:53;12.53;;;8.07;;
19016;SDS011;9641;51.494;6.670;2023-02-13T11:14:23;12.63;;;8.00;;
19016;SDS011;9641;51.494;6.670;2023-02-13T11:16:53;14.40;;;8.60;;
19016;SDS011;9641;51.494;6.670;2023-02-13T11:19:24;13.10;;;7.72;;
19016;SDS011;9641;51.494;6.670;2023-02-13T11:22:00;10.95;;;6.85;;
19016;SDS011;9641;51.494;6.670;2023-02-13T11:24:29;15.45;;;8.00;;
19016;SDS011;9641;51.494;6.670;2023-02-13T11:26:58;14.93;;;8.15;;
19016;SDS011;9641;51.494;6.670;2023-02-13T11:29:31;14.25;;;8.05;;
19016;SDS011;9641;51.494;6.670;2023-02-13T11:32:08;14.27;;;8.80;;
19016;SDS011;9641;51.494;6.670;2023-02-13T11:34:45;11.10;;;7.20;;
19016;SDS011;9641;51.494;6.670;2023-02-13T11:37:20;11.32;;;7.40;;
19016;SDS011;9641;51.494;6.670;2023-02-13T11:39:51;15.57;;;7.70;;
19016;SDS011;9641;51.494;6.670;2023-02-13T11:42:25;9.32;;;6.03;;
19016;SDS011;9641;51.494;6.670;2023-02-13T11:44:57;8.20;;;5.95;;
19016;SDS011;9641;51.494;6.670;2023-02-13T11:47:31;12.10;;;6.22;;
19016;SDS011;9641;51.494;6.670;2023-02-13T11:50:01;10.88;;;7.05;;
19016;SDS011;9641;51.494;6.670;2023-02-13T11:52:31;8.82;;;6.50;;
19016;SDS011;9641;51.494;6.670;2023-02-13T11:55:01;10.98;;;7.30;;
19016;SDS011;9641;51.494;6.670;2023-02-13T11:57:54;11.07;;;6.05;;
19016;SDS011;9641;51.494;6.670;2023-02-13T12:00:30;11.65;;;6.07;;
19016;SDS011;9641;51.494;6.670;2023-02-13T12:03:02;8.93;;;6.22;;
19016;SDS011;9641;51.494;6.670;2023-02-13T12:05:58;10.30;;;5.47;;
19016;SDS011;9641;51.494;6.670;2023-02-13T12:08:27;8.40;;;5.82;;
19016;SDS011;9641;51.494;6.670;2023-02-13T12:11:00;8.55;;;5.63;;
19016;SDS011;9641;51.494;6.670;2023-02-13T12:13:34;9.18;;;6.10;;
19016;SDS011;9641;51.494;6.670;2023-02-13T12:16:05;11.10;;;5.93;;
19016;SDS011;9641;51.494;6.670;2023-02-13T12:18:41;9.40;;;6.32;;
19016;SDS011;9641;51.494;6.670;2023-02-13T12:21:14;10.48;;;6.47;;
19016;SDS011;9641;51.494;6.670;2023-02-13T12:23:54;9.50;;;5.97;;
19016;SDS011;9641;51.494;6.670;2023-02-13T12:26:30;9.02;;;5.82;;
19016;SDS011;9641;51.494;6.670;2023-02-13T12:29:14;9.20;;;5.47;;
19016;SDS011;9641;51.494;6.670;2023-02-13T12:32:00;9.00;;;5.65;;
19016;SDS011;9641;51.494;6.670;2023-02-13T12:34:41;10.27;;;6.55;;
19016;SDS011;9641;51.494;6.670;2023-02-13T12:37:36;12.70;;;6.65;;
19016;SDS011;9641;51.494;6.670;2023-02-13T12:40:25;12.18;;;6.40;;
19016;SDS011;9641;51.494;6.670;2023-02-13T12:43:19;13.82;;;6.60;;
19016;SDS011;9641;51.494;6.670;2023-02-13T12:45:56;9.82;;;6.22;;
19016;SDS011;9641;51.494;6.670;2023-02-13T12:48:30;8.82;;;6.10;;
19016;SDS011;9641;51.494;6.670;2023-02-13T12:51:15;12.07;;;6.30;;
19016;SDS011;9641;51.494;6.670;2023-02-13T12:54:06;10.90;;;6.57;;
19016;SDS011;9641;51.494;6.670;2023-02-13T12:56:55;11.50;;;5.82;;
19016;SDS011;9641;51.494;6.670;2023-02-13T12:59:35;9.55;;;5.97;;
19016;SDS011;9641;51.494;6.670;2023-02-13T13:05:22;10.80;;;7.22;;
19016;SDS011;9641;51.494;6.670;2023-02-13T13:08:03;11.50;;;7.25;;
19016;SDS011;9641;51.494;6.670;2023-02-13T13:10:52;8.68;;;6.20;;
19016;SDS011;9641;51.494;6.670;2023-02-13T13:13:31;8.95;;;6.53;;
19016;SDS011;9641;51.494;6.670;2023-02-13T13:16:05;10.90;;;7.60;;
19016;SDS011;9641;51.494;6.670;2023-02-13T13:18:40;8.20;;;6.10;;
19016;SDS011;9641;51.494;6.670;2023-02-13T13:21:16;8.32;;;5.93;;
19016;SDS011;9641;51.494;6.670;2023-02-13T13:23:53;12.45;;;7.18;;
19016;SDS011;9641;51.494;6.670;2023-02-13T13:26:27;16.30;;;6.13;;
19016;SDS011;9641;51.494;6.670;2023-02-13T13:29:05;8.52;;;6.18;;
19016;SDS011;9641;51.494;6.670;2023-02-13T13:31:37;9.70;;;5.70;;
19016;SDS011;9641;51.494;6.670;2023-02-13T13:34:05;12.43;;;6.70;;
19016;SDS011;9641;51.494;6.670;2023-02-13T13:36:39;8.70;;;6.57;;
19016;SDS011;9641;51.494;6.670;2023-02-13T13:39:14;6.45;;;5.32;;
19016;SDS011;9641;51.494;6.670;2023-02-13T13:41:50;9.38;;;5.57;;
19016;SDS011;9641;51.494;6.670;2023-02-13T13:47:15;8.77;;;6.13;;
19016;SDS011;9641;51.494;6.670;2023-02-13T13:49:50;9.63;;;6.28;;
19016;SDS011;9641;51.494;6.670;2023-02-13T13:52:24;10.68;;;6.80;;
19016;SDS011;9641;51.494;6.670;2023-02-13T13:54:52;11.55;;;5.95;;
19016;SDS011;9641;51.494;6.670;2023-02-13T13:57:21;8.35;;;6.22;;
19016;SDS011;9641;51.494;6.670;2023-02-13T14:11:40;9.57;;;5.57;;
19016;SDS011;9641;51.494;6.670;2023-02-13T14:20:26;9.75;;;5.57;;
19016;SDS011;9641;51.494;6.670;2023-02-13T14:26:33;9.43;;;5.93;;
19016;SDS011;9641;51.494;6.670;2023-02-13T14:31:56;13.23;;;6.88;;
19016;SDS011;9641;51.494;6.670;2023-02-13T14:34:31;6.45;;;5.05;;
19016;SDS011;9641;51.494;6.670;2023-02-13T14:37:05;9.57;;;5.40;;
19016;SDS011;9641;51.494;6.670;2023-02-13T14:42:39;8.50;;;6.00;;
19016;SDS011;9641;51.494;6.670;2023-02-13T14:45:10;8.13;;;5.50;;
19016;SDS011;9641;51.494;6.670;2023-02-13T14:47:41;6.35;;;4.35;;
19016;SDS011;9641;51.494;6.670;2023-02-13T14:50:17;7.80;;;4.93;;
19016;SDS011;9641;51.494;6.670;2023-02-13T14:52:47;6.55;;;4.95;;
19016;SDS011;9641;51.494;6.670;2023-02-13T14:55:16;7.00;;;5.10;;
19016;SDS011;9641;51.494;6.670;2023-02-13T14:57:56;8.02;;;4.68;;
19016;SDS011;9641;51.494;6.670;2023-02-13T15:00:30;7.45;;;4.90;;
19016;SDS011;9641;51.494;6.670;2023-02-13T15:03:06;6.05;;;4.28;;
19016;SDS011;9641;51.494;6.670;2023-02-13T15:05:48;6.38;;;4.35;;
19016;SDS011;9641;51.494;6.670;2023-02-13T15:08:17;5.22;;;3.95;;
19016;SDS011;9641;51.494;6.670;2023-02-13T15:10:48;4.60;;;4.10;;
19016;SDS011;9641;51.494;6.670;2023-02-13T15:13:17;6.88;;;4.03;;
19016;SDS011;9641;51.494;6.670;2023-02-13T15:15:50;7.55;;;3.70;;
19016;SDS011;9641;51.494;6.670;2023-02-13T15:18:18;6.45;;;4.20;;
19016;SDS011;9641;51.494;6.670;2023-02-13T15:20:53;5.80;;;3.97;;
19016;SDS011;9641;51.494;6.670;2023-02-13T15:23:27;6.03;;;3.88;;
19016;SDS011;9641;51.494;6.670;2023-02-13T15:25:56;7.38;;;4.38;;
19016;SDS011;9641;51.494;6.670;2023-02-13T15:28:26;8.95;;;4.15;;
19016;SDS011;9641;51.494;6.670;2023-02-13T15:30:56;8.50;;;4.43;;
19016;SDS011;9641;51.494;6.670;2023-02-13T15:33:25;8.40;;;4.40;;
19016;SDS011;9641;51.494;6.670;2023-02-13T15:35:56;8.75;;;4.80;;
19016;SDS011;9641;51.494;6.670;2023-02-13T15:38:25;7.88;;;4.40;;
19016;SDS011;9641;51.494;6.670;2023-02-13T15:40:54;7.80;;;5.03;;
19016;SDS011;9641;51.494;6.670;2023-02-13T15:43:26;11.43;;;4.53;;
19016;SDS011;9641;51.494;6.670;2023-02-13T15:45:59;10.43;;;4.70;;
19016;SDS011;9641;51.494;6.670;2023-02-13T15:48:30;8.65;;;4.88;;
19016;SDS011;9641;51.494;6.670;2023-02-13T15:51:01;10.35;;;4.22;;
19016;SDS011;9641;51.494;6.670;2023-02-13T15:53:28;10.63;;;4.90;;
19016;SDS011;9641;51.494;6.670;2023-02-13T15:55:59;16.00;;;5.40;;
19016;SDS011;9641;51.494;6.670;2023-02-13T15:58:29;9.67;;;4.73;;
19016;SDS011;9641;51.494;6.670;2023-02-13T16:01:00;11.47;;;4.73;;